This is the latest recevied weather packets stored in our database for station/object JH0FOG-13. If no packets are shown the sender has not sent any weather packets the latest 10 day(s).
| Time | Temp. | Humidity | Pressure | Rain* | Wind** | Luminosity | Snow |
|---|---|---|---|---|---|---|---|
| 1777975201 | 13.89° C | 65% | 1019.1 hPa | 0 mm | - | - | - |
| 1777974002 | 14.44° C | 64% | 1019 hPa | 0 mm | - | - | - |
| 1777972802 | 15.56° C | 55% | 1018.7 hPa | 0 mm | - | - | - |
| 1777971602 | 16.11° C | 53% | 1018.6 hPa | 0 mm | - | - | - |
| 1777970402 | 16.67° C | 54% | 1018.3 hPa | 0 mm | - | - | - |
| 1777969202 | 18.33° C | 41% | 1018.3 hPa | 0 mm | - | - | - |
| 1777968002 | 19.44° C | 38% | 1018.5 hPa | 0 mm | - | - | - |
| 1777966802 | 18.89° C | 43% | 1018.4 hPa | 0 mm | - | - | - |
| 1777965602 | 19.44° C | 36% | 1018.5 hPa | 0 mm | - | - | - |
| 1777964402 | 19.44° C | 38% | 1018.5 hPa | 0 mm | - | - | - |
| 1777963202 | 19.44° C | 36% | 1018.6 hPa | 0 mm | - | - | - |
| 1777962001 | 18.89° C | 38% | 1019 hPa | 0 mm | - | - | - |
| 1777960801 | 19.44° C | 34% | 1019 hPa | 0 mm | - | - | - |
| 1777959601 | 18.89° C | 35% | 1019.2 hPa | 0 mm | - | - | - |
| 1777958401 | 19.44° C | 34% | 1019.6 hPa | 0 mm | - | - | - |
| 1777957202 | 19.44° C | 31% | 1019.8 hPa | 0 mm | - | - | - |
| 1777956002 | 19.44° C | 34% | 1020 hPa | 0 mm | - | - | - |
| 1777954802 | 18.89° C | 33% | 1020.3 hPa | 0 mm | - | - | - |
| 1777953602 | 19.44° C | 32% | 1020.2 hPa | 0 mm | - | - | - |
| 1777952402 | 19.44° C | 34% | 1020.3 hPa | 0 mm | - | - | - |
| 1777951202 | 18.89° C | 37% | 1020.4 hPa | 0 mm | - | - | - |
| 1777950002 | 18.89° C | 42% | 1020.5 hPa | 0 mm | - | - | - |
| 1777948802 | 18.89° C | 43% | 1020.8 hPa | 0 mm | - | - | - |
| 1777947601 | 18.33° C | 44% | 1021 hPa | 0 mm | - | - | - |
| 1777946401 | 18.89° C | 43% | 1021 hPa | 0 mm | - | - | - |
* Rain latest hour (hover to see other rain measurements)
** Current wind speed in m/s (hover to see current wind gust speed)